Etusivu
METAR-TAF:

METAR-TAF

Lentoasemat :

Saint-Dizier, Ranska

Leveyspiiri: 48-38N, Pituuspiiri: 004-54E, korkeus merenpinnasta: 139 m

Tämänhetkinen sää

Tämä raportti tehtiin 31 minuuttia sitten, kello 07.00 UTC
Tuuli 3 kn idästä, vaihdellen pohjoisen/koillisen ja kaakon välillä
Lämpötila 20°C
Kosteus 43%
Ilmanpaine 1022 hPa
Näkyvyys 10 km tai enemmän
ei pilviä alle 1500 m:ssä eikä cumulonimbus-pilviä

METAR: LFSI 130700Z AUTO 09003KT 030V140 CAVOK 20/07 Q1022

Aika: 09:31 (07:31 UTC)

Sääennuste

Tämä raportti tehtiin 5 tuntia ja 31 minuuttia sitten, kello 02.00 UTC
Ennuste voimassa 13. päivästä klo 03 UTC - 14. päivään klo 03 UTC
Tuuli 6 kn koillisesta
Näkyvyys 10 km tai enemmän
ei pilviä alle 1500 m:ssä eikä cumulonimbus-pilviä

TAF: LFSI 130200Z 1303/1403 05006KT CAVOK

Säähavainnot ja -ennusteet yli 4000 lentoasemalta (METAR- ja TAF-raportit).

Käytössä olevat sääasemat on merkitty karttaan keltaisilla ja punaisilla pisteillä.

Aseta hiiri pisteen päälle nähdäksesi sääaseman nimen.

Klikkaa sitten nähdäksesi säähavainnot ja -ennusteet.

Kartan vaihtaminen: klikkaa mustalla rastilla varustettuja vihreitä pisteitä, niin voit zoomata sisään; viivalla varustettua vihreää pistettä, niin voit zoomata ulos tai vihreitä nuolia, niin pääset viereisille kartoille.


METAR-TAF: